createdAt,value
2023-04-09T00:00:26.053Z,19.10
2023-04-09T00:01:27.965Z,18.60
2023-04-09T00:02:24.681Z,18.79
2023-04-09T00:03:24.631Z,18.60
2023-04-09T00:04:24.569Z,18.29
2023-04-09T00:05:24.879Z,17.89
2023-04-09T00:06:23.832Z,18.20
2023-04-09T00:07:24.319Z,18.10
2023-04-09T00:08:24.383Z,16.79
2023-04-09T00:09:24.181Z,17.89
2023-04-09T00:10:24.588Z,17.29
2023-04-09T00:11:24.738Z,17.10
2023-04-09T00:12:24.184Z,17.79
2023-04-09T00:13:31.944Z,17.20
2023-04-09T00:14:24.173Z,18
2023-04-09T00:15:30.736Z,18.20
2023-04-09T00:16:23.810Z,17.79
2023-04-09T00:17:24.164Z,17.89
2023-04-09T00:18:24.038Z,17.29
2023-04-09T00:19:24.296Z,18.10
2023-04-09T00:20:24.283Z,18.5
2023-04-09T00:21:24.347Z,19.29
2023-04-09T00:22:24.035Z,19.5
2023-04-09T00:23:24.400Z,18.39
2023-04-09T00:24:24.443Z,19.20
2023-04-09T00:25:24.489Z,19.10
2023-04-09T00:26:24.456Z,19.39
2023-04-09T00:27:24.259Z,18.89
2023-04-09T00:28:24.607Z,19.29
2023-04-09T00:29:24.191Z,19
2023-04-09T00:30:24.604Z,19.79
2023-04-09T00:31:23.953Z,19.5
2023-04-09T00:32:24.250Z,20
2023-04-09T00:33:23.508Z,19.5
2023-04-09T00:34:24.713Z,19
2023-04-09T00:35:24.298Z,18.5
2023-04-09T00:36:27.013Z,18.79
2023-04-09T00:37:24.172Z,19
2023-04-09T00:38:23.924Z,19.5
2023-04-09T00:39:24.249Z,19.29
2023-04-09T00:40:24.284Z,19.10
2023-04-09T00:41:42.946Z,18.5
2023-04-09T00:43:24.033Z,19.10
2023-04-09T00:44:24.452Z,19
2023-04-09T00:46:24.732Z,18.60
2023-04-09T00:47:24.723Z,19.29
2023-04-09T00:48:24.175Z,19.10
2023-04-09T00:49:24.250Z,19.29
2023-04-09T00:50:24.262Z,19.5
2023-04-09T00:51:24.798Z,18.5
2023-04-09T00:53:23.929Z,18.60
2023-04-09T00:54:24.308Z,19
2023-04-09T00:55:24.050Z,18.20
2023-04-09T00:56:24.265Z,18.39
2023-04-09T00:57:24.191Z,19.10
2023-04-09T00:58:23.802Z,19.89
2023-04-09T00:59:24.450Z,18.70
2023-04-09T01:00:25.089Z,18.60
2023-04-09T01:01:24.031Z,18.79
2023-04-09T01:02:24.628Z,18.5
2023-04-09T01:03:24.787Z,18.60
2023-04-09T01:04:24.166Z,18.79
2023-04-09T01:05:24.477Z,19.29
2023-04-09T01:06:24.349Z,18.10
2023-04-09T01:07:24.496Z,18.70
2023-04-09T01:08:25.847Z,18.60
2023-04-09T01:09:24.224Z,19.20
2023-04-09T01:10:24.180Z,18.70
2023-04-09T01:11:24.214Z,18.29
2023-04-09T01:12:24.356Z,18.89
2023-04-09T01:13:24.061Z,19.89
2023-04-09T01:14:24.728Z,19.60
2023-04-09T01:15:24.402Z,19.20
2023-04-09T01:16:24.162Z,19.89
2023-04-09T01:17:24.628Z,20
2023-04-09T01:18:24.791Z,21.5
2023-04-09T01:19:24.152Z,20.10
2023-04-09T01:20:24.281Z,19.79
2023-04-09T01:21:24.032Z,20.60
2023-04-09T01:22:24.396Z,20.29
2023-04-09T01:23:24.927Z,20.39
2023-04-09T01:24:24.182Z,20.5
2023-04-09T01:25:24.767Z,19.89
2023-04-09T01:26:24.351Z,19.60
2023-04-09T01:27:23.970Z,19.79
2023-04-09T01:28:24.408Z,19.60
2023-04-09T01:29:24.117Z,19.10
2023-04-09T01:30:24.621Z,19.29
2023-04-09T01:31:24.523Z,19.5
2023-04-09T01:32:24.718Z,20
2023-04-09T01:33:23.935Z,19.29
2023-04-09T01:34:24.364Z,19.39
2023-04-09T01:35:24.186Z,18.79
2023-04-09T01:36:24.527Z,19.29
2023-04-09T01:37:24.554Z,19
2023-04-09T01:38:24.852Z,19.5
2023-04-09T01:39:24.755Z,18.39
2023-04-09T01:40:25.296Z,19
2023-04-09T01:41:24.263Z,18.29
2023-04-09T01:42:24.685Z,19.79
2023-04-09T01:43:24.506Z,19.60
2023-04-09T01:44:24.556Z,17.89
2023-04-09T01:45:24.830Z,19
2023-04-09T01:46:24.543Z,19.10
2023-04-09T01:47:24.243Z,20.5
2023-04-09T01:48:24.452Z,19.60
2023-04-09T01:49:23.907Z,19.29
2023-04-09T01:50:24.084Z,19.89
2023-04-09T01:51:23.764Z,20.39
2023-04-09T01:52:24.304Z,20.29
2023-04-09T01:53:24.201Z,18.39
2023-04-09T01:54:23.808Z,19.20
2023-04-09T01:55:24.261Z,19
2023-04-09T01:56:25.117Z,19.70
2023-04-09T01:57:23.864Z,19.79
2023-04-09T01:59:24.758Z,19.89
2023-04-09T02:00:25.822Z,18.70
2023-04-09T02:01:23.962Z,19.39
2023-04-09T02:02:23.899Z,19.29
2023-04-09T02:03:24.129Z,19.5
2023-04-09T02:04:23.591Z,19.89
2023-04-09T02:05:24.178Z,20
2023-04-09T02:06:24.497Z,19.20
2023-04-09T02:07:24.527Z,19.70
2023-04-09T02:08:24.164Z,18.39
2023-04-09T02:09:25.066Z,19.60
2023-04-09T02:10:24.002Z,19.5
2023-04-09T02:11:23.557Z,19.60
2023-04-09T02:12:24.317Z,19.79
2023-04-09T02:13:24.155Z,20.5
2023-04-09T02:14:24.295Z,19
2023-04-09T02:15:24.884Z,19.29
2023-04-09T02:16:23.576Z,18.89
2023-04-09T02:17:23.863Z,19.39
2023-04-09T02:18:24.531Z,19
2023-04-09T02:19:24.337Z,19.29
2023-04-09T02:20:24.834Z,19.70
2023-04-09T02:21:24.743Z,19.29
2023-04-09T02:22:24.427Z,19.39
2023-04-09T02:23:24.720Z,19.5
2023-04-09T02:24:24.477Z,19
2023-04-09T02:25:24.523Z,18.70
2023-04-09T02:26:24.195Z,19.20
2023-04-09T02:27:24.162Z,19
2023-04-09T02:28:23.977Z,18.89
2023-04-09T02:29:23.855Z,19.20
2023-04-09T02:30:24.959Z,20
2023-04-09T02:31:24.086Z,18.79
2023-04-09T02:32:24.220Z,18.29
2023-04-09T02:33:24.194Z,19.5
2023-04-09T02:34:24.337Z,18.79
2023-04-09T02:35:23.863Z,19.10
2023-04-09T02:37:23.989Z,19.5
2023-04-09T02:38:24.436Z,19.20
2023-04-09T02:39:24.547Z,18.70
2023-04-09T02:40:25.084Z,19.89
2023-04-09T02:41:24.609Z,18.89
2023-04-09T02:42:24.795Z,18.70
2023-04-09T02:43:24.117Z,20.79
2023-04-09T02:44:32.036Z,22.29
2023-04-09T02:45:24.648Z,21.39
2023-04-09T02:46:24.960Z,21.5
2023-04-09T02:47:24.132Z,22.89
2023-04-09T02:48:24.015Z,24.89
2023-04-09T02:49:24.568Z,25.10
2023-04-09T02:50:24.466Z,23.89
2023-04-09T02:51:23.851Z,24.20
2023-04-09T02:52:24.368Z,23.5
2023-04-09T02:53:23.729Z,23.89
2023-04-09T02:54:24.155Z,22.5
2023-04-09T02:55:24.530Z,22.70
2023-04-09T02:56:24.654Z,22.89
2023-04-09T02:57:24.497Z,22.79
2023-04-09T02:58:24.526Z,22.89
2023-04-09T02:59:23.947Z,21.5
2023-04-09T03:00:39.970Z,21.20
2023-04-09T03:01:25.289Z,22.20
2023-04-09T03:02:25.341Z,21.20
2023-04-09T03:03:24.756Z,22.60
2023-04-09T03:04:43.182Z,20.89
2023-04-09T03:05:25.880Z,22
2023-04-09T03:06:24.236Z,21.39
2023-04-09T03:07:23.804Z,22.60
2023-04-09T03:08:24.613Z,22.5
2023-04-09T03:09:24.463Z,22.10
2023-04-09T03:10:43.776Z,20.89
2023-04-09T03:11:24.497Z,22.29
2023-04-09T03:13:24.182Z,21.70
2023-04-09T03:14:24.184Z,21.29
2023-04-09T03:15:24.474Z,21.10
2023-04-09T03:16:24.488Z,20.89
2023-04-09T03:17:24.516Z,21.20
2023-04-09T03:18:24.877Z,20.20
2023-04-09T03:19:24.014Z,20.70
2023-04-09T03:20:24.397Z,21
2023-04-09T03:21:23.988Z,21.70
2023-04-09T03:22:23.761Z,22.10
2023-04-09T03:23:24.434Z,21.89
2023-04-09T03:24:24.294Z,20.79
2023-04-09T03:25:24.391Z,21
2023-04-09T03:26:24.717Z,20.79
2023-04-09T03:27:24.645Z,19.89
2023-04-09T03:28:24.002Z,19.5
2023-04-09T03:29:24.307Z,19.79
2023-04-09T03:30:24.937Z,18.70
2023-04-09T03:31:24.233Z,19.70
2023-04-09T03:32:24.360Z,19.5
2023-04-09T03:33:24.651Z,18.70
2023-04-09T03:34:24.929Z,19.5
2023-04-09T03:35:24.795Z,18.70
2023-04-09T03:36:24.675Z,18.60
2023-04-09T03:37:24.670Z,18.5
2023-04-09T03:38:24.764Z,19.29
2023-04-09T03:39:24.945Z,19.39
2023-04-09T03:40:24.601Z,20.10
2023-04-09T03:41:24.176Z,19.29
2023-04-09T03:42:24.117Z,18.89
2023-04-09T03:43:23.690Z,19.60
2023-04-09T03:44:24.619Z,20.29
2023-04-09T03:45:24.281Z,19.70
2023-04-09T03:46:24.335Z,19.20
2023-04-09T03:47:24.270Z,20.29
2023-04-09T03:49:23.686Z,19.70
2023-04-09T03:50:24.224Z,20.29
2023-04-09T03:51:24.054Z,19.5
2023-04-09T03:52:23.891Z,20.70
2023-04-09T03:53:23.642Z,19.70
2023-04-09T03:54:24.007Z,20.20
2023-04-09T03:55:24.637Z,20
2023-04-09T03:56:24.583Z,19.5
2023-04-09T03:57:24.913Z,19.79
2023-04-09T03:58:23.949Z,19.20
2023-04-09T04:00:25.446Z,18.5
2023-04-09T04:01:24.811Z,19.60
2023-04-09T04:02:24.415Z,18.79
2023-04-09T04:03:25.622Z,19.10
2023-04-09T04:04:24.231Z,18.20
2023-04-09T04:05:25.071Z,19.10
2023-04-09T04:06:23.833Z,18.70
2023-04-09T04:07:24.870Z,19.10
2023-04-09T04:08:24.757Z,18.70
2023-04-09T04:09:24.481Z,18.29
2023-04-09T04:11:24.149Z,18.39
2023-04-09T04:12:24.047Z,17.79
2023-04-09T04:13:24.523Z,18.39
2023-04-09T04:14:24.788Z,18.10
2023-04-09T04:15:24.805Z,19.20
2023-04-09T04:16:24.096Z,18.70
2023-04-09T04:17:24.109Z,18.20
2023-04-09T04:18:24.159Z,18.89
2023-04-09T04:19:24.513Z,18.70
2023-04-09T04:20:24.466Z,18.29
2023-04-09T04:21:24.215Z,18.70
2023-04-09T04:22:26.272Z,19.60
2023-04-09T04:23:24.284Z,19.10
2023-04-09T04:24:24.616Z,19.39
2023-04-09T04:25:26.103Z,18.39
2023-04-09T04:26:25.150Z,19.20
2023-04-09T04:27:26.309Z,19.29
2023-04-09T04:28:24.610Z,18.89
2023-04-09T04:29:24.429Z,19.60
2023-04-09T04:30:24.101Z,19.70
2023-04-09T04:31:23.970Z,18.39
2023-04-09T04:32:24.573Z,18.5
2023-04-09T04:33:24.314Z,19.10
2023-04-09T04:34:24.037Z,18.79
2023-04-09T04:35:24.959Z,18.10
2023-04-09T04:36:24.356Z,19.29
2023-04-09T04:37:24.089Z,18.20
2023-04-09T04:38:24.554Z,17.60
2023-04-09T04:39:24.164Z,18.39
2023-04-09T04:41:23.383Z,18.89
2023-04-09T04:42:24.917Z,17.89
2023-04-09T04:43:24.754Z,18.29
2023-04-09T04:44:24.827Z,18.20
2023-04-09T04:45:25.958Z,18.29
2023-04-09T04:46:24.350Z,19.29
2023-04-09T04:47:24.779Z,17.79
2023-04-09T04:48:24.385Z,18.5
2023-04-09T04:49:25.475Z,18.29
2023-04-09T04:50:24.073Z,18.89
2023-04-09T04:51:24.721Z,18.39
2023-04-09T04:52:24.260Z,17.70
2023-04-09T04:53:24.259Z,18.70
2023-04-09T04:54:24.144Z,19.10
2023-04-09T04:55:24.173Z,18.70
2023-04-09T04:56:24.120Z,18.29
2023-04-09T04:57:24.428Z,18.5
2023-04-09T04:58:24.723Z,19.10
2023-04-09T04:59:24.506Z,19.20
2023-04-09T05:01:24.142Z,18.70
2023-04-09T05:02:24.654Z,18.5
2023-04-09T05:03:26.132Z,18.70
2023-04-09T05:04:24.890Z,18.79
2023-04-09T05:05:24.438Z,19.5
2023-04-09T05:06:24.864Z,18.60
2023-04-09T05:07:24.366Z,19.10
2023-04-09T05:08:24.720Z,19.60
2023-04-09T05:09:24.943Z,19.89
2023-04-09T05:10:24.504Z,19.5
2023-04-09T05:11:32.748Z,20
2023-04-09T05:12:24.808Z,19.20
2023-04-09T05:13:39.056Z,19.39
2023-04-09T05:14:24.492Z,20.39
2023-04-09T05:15:38.114Z,18.60
2023-04-09T05:16:24.448Z,20
2023-04-09T05:17:24.515Z,20.20
2023-04-09T05:18:24.472Z,19.29
2023-04-09T05:20:24.493Z,20
2023-04-09T05:21:24.294Z,20.39
2023-04-09T05:22:24.653Z,19.89
2023-04-09T05:24:25.073Z,19.79
2023-04-09T05:25:24.278Z,19.89
2023-04-09T05:26:24.932Z,19.5
2023-04-09T05:27:24.468Z,19.79
2023-04-09T05:28:24.353Z,20.20
2023-04-09T05:29:24.848Z,20.89
2023-04-09T05:30:25.238Z,19.5
2023-04-09T05:31:24.003Z,21.60
2023-04-09T05:32:24.163Z,22
2023-04-09T05:33:24.268Z,21
2023-04-09T05:35:23.946Z,20.5
2023-04-09T05:37:24.541Z,20
2023-04-09T05:38:24.883Z,21.20
2023-04-09T05:39:24.486Z,21
2023-04-09T05:40:24.847Z,20.70
2023-04-09T05:41:24.089Z,20.89
2023-04-09T05:42:24.219Z,20.29
2023-04-09T05:43:24.356Z,20.10
2023-04-09T05:45:24.631Z,20
2023-04-09T05:46:24.302Z,20.20
2023-04-09T05:47:24.556Z,21.89
2023-04-09T05:48:24.478Z,21.10
2023-04-09T05:49:24.391Z,20.70
2023-04-09T05:50:24.306Z,21.29
2023-04-09T05:51:24.746Z,21.5
2023-04-09T05:52:24.539Z,20.89
2023-04-09T05:54:25.387Z,21.10
2023-04-09T05:55:25.041Z,21.5
2023-04-09T05:56:24.208Z,20.29
2023-04-09T05:57:24.774Z,21.20
2023-04-09T05:58:24.756Z,20.39
2023-04-09T05:59:24.996Z,21.29
2023-04-09T06:00:25.830Z,20.60
2023-04-09T06:01:24.729Z,20.20
2023-04-09T06:02:24.647Z,20.39
2023-04-09T06:03:24.219Z,20.70
2023-04-09T06:04:24.845Z,20.89
2023-04-09T06:05:24.785Z,20.10
2023-04-09T06:06:24.827Z,20
2023-04-09T06:07:24.647Z,22.39
2023-04-09T06:08:24.469Z,20.29
2023-04-09T06:09:24.689Z,21.29
2023-04-09T06:10:24.240Z,21.10
2023-04-09T06:11:24.353Z,20.39
2023-04-09T06:12:24.900Z,19.89
2023-04-09T06:13:23.988Z,20.60
2023-04-09T06:14:25.055Z,19.60
2023-04-09T06:15:24.490Z,19.70
2023-04-09T06:16:25.140Z,18.79
2023-04-09T06:17:24.923Z,19.70
2023-04-09T06:18:24.782Z,19.20
2023-04-09T06:19:24.518Z,20.29
2023-04-09T06:21:24.715Z,20
2023-04-09T06:22:24.515Z,20.20
2023-04-09T06:23:24.267Z,19.70
2023-04-09T06:24:24.963Z,20.10
2023-04-09T06:25:24.760Z,18.79
2023-04-09T06:26:24.553Z,19.70
2023-04-09T06:27:24.784Z,19.5
2023-04-09T06:28:24.291Z,19.79
2023-04-09T06:29:24.639Z,19.5
2023-04-09T06:30:25.285Z,20.20
2023-04-09T06:32:25.092Z,20
2023-04-09T06:33:24.249Z,20.29
2023-04-09T06:35:24.149Z,19.5
2023-04-09T06:36:25.376Z,20.20
2023-04-09T06:37:24.915Z,20.89
2023-04-09T06:38:24.799Z,21.39
2023-04-09T06:39:25.006Z,21.20
2023-04-09T06:40:25.440Z,20.60
2023-04-09T06:41:24.706Z,20.20
2023-04-09T06:42:24.565Z,20.79
2023-04-09T06:43:24.134Z,20.70
2023-04-09T06:44:24.536Z,22.29
2023-04-09T06:45:24.816Z,20.39
2023-04-09T06:46:24.970Z,21.39
2023-04-09T06:47:24.845Z,21.10
2023-04-09T06:48:24.344Z,21.5
2023-04-09T06:49:24.640Z,21.89
2023-04-09T06:50:24.883Z,21.29
2023-04-09T06:51:24.625Z,21.60
2023-04-09T06:52:24.712Z,21.29
2023-04-09T06:53:24.648Z,21.39
2023-04-09T06:54:25.010Z,22.29
2023-04-09T06:55:24.440Z,21.5
2023-04-09T06:56:24.799Z,23.5
2023-04-09T06:57:25.049Z,22.20
2023-04-09T06:58:24.280Z,21.70
2023-04-09T06:59:24.360Z,22.39
2023-04-09T07:00:25.673Z,21.39
2023-04-09T07:01:25.109Z,22
2023-04-09T07:02:25.399Z,22.79
2023-04-09T07:03:24.818Z,21.70
2023-04-09T07:04:24.251Z,22.10
2023-04-09T07:05:24.884Z,22.20
2023-04-09T07:06:25.260Z,21.10
2023-04-09T07:07:25.958Z,22.5
2023-04-09T07:08:24.478Z,20.10
2023-04-09T07:09:25.448Z,20.79
2023-04-09T07:10:24.843Z,21.60
2023-04-09T07:11:24.422Z,20
2023-04-09T07:12:25.169Z,18.89
2023-04-09T07:13:23.229Z,19.39
2023-04-09T07:14:24.884Z,19.10
2023-04-09T07:15:24.346Z,22.29
2023-04-09T07:16:24.518Z,21.39
2023-04-09T07:17:24.504Z,19.79
2023-04-09T07:18:24.443Z,19.60
2023-04-09T07:20:29.715Z,19.70
2023-04-09T07:21:25.896Z,18.89
2023-04-09T07:22:24.626Z,19.39
2023-04-09T07:23:24.669Z,20.10
2023-04-09T07:24:24.431Z,18.39
2023-04-09T07:25:25.374Z,19.20
2023-04-09T07:26:24.668Z,18.60
2023-04-09T07:27:24.618Z,19.29
2023-04-09T07:28:24.108Z,18.39
2023-04-09T07:30:29.873Z,18.70
2023-04-09T07:31:24.287Z,17.70
2023-04-09T07:32:24.497Z,17.89
2023-04-09T07:33:24.550Z,18.70
2023-04-09T07:34:24.425Z,17.60
2023-04-09T07:35:24.729Z,16.70
2023-04-09T07:37:24.940Z,16
2023-04-09T07:38:24.440Z,16.10
2023-04-09T07:39:25.220Z,16.20
2023-04-09T07:40:24.172Z,15.5
2023-04-09T07:41:24.554Z,16.10
2023-04-09T07:42:24.417Z,15.60
2023-04-09T07:43:24.742Z,14.39
2023-04-09T07:44:24.671Z,14.60
2023-04-09T07:45:25.175Z,14.69
2023-04-09T07:46:24.628Z,14.19
2023-04-09T07:47:24.339Z,14
2023-04-09T07:48:24.361Z,13
2023-04-09T07:49:24.445Z,14.10
2023-04-09T07:50:25.356Z,13.89
2023-04-09T07:51:24.613Z,13.80
2023-04-09T07:52:24.341Z,13.69
2023-04-09T07:53:24.179Z,13.30
2023-04-09T07:54:24.382Z,14.19
2023-04-09T07:55:24.603Z,14.10
2023-04-09T07:57:24.605Z,13.69
2023-04-09T07:58:24.730Z,12.10
2023-04-09T07:59:24.467Z,12.5
2023-04-09T08:00:25.935Z,11.80
2023-04-09T08:01:24.474Z,11.10
2023-04-09T08:03:24.338Z,10.80
2023-04-09T08:05:24.590Z,9.600
2023-04-09T08:06:24.131Z,10
2023-04-09T08:07:24.094Z,10.5
2023-04-09T08:08:24.493Z,9.899
2023-04-09T08:09:24.025Z,11.10
2023-04-09T08:10:24.897Z,10.19
2023-04-09T08:11:25.164Z,10.10
2023-04-09T08:12:24.829Z,9.699
2023-04-09T08:14:25.134Z,9.100
2023-04-09T08:15:25.310Z,9
2023-04-09T08:16:24.669Z,9.199
2023-04-09T08:17:24.277Z,8.600
2023-04-09T08:18:24.298Z,8.100
2023-04-09T08:19:24.118Z,8.199
2023-04-09T08:20:24.599Z,7.800
2023-04-09T08:21:24.313Z,7.400
2023-04-09T08:22:24.784Z,7.300
2023-04-09T08:23:25.532Z,7.199
2023-04-09T08:24:24.712Z,6.099
2023-04-09T08:25:24.507Z,5.800
2023-04-09T08:26:23.695Z,5
2023-04-09T08:27:24.933Z,5.199
2023-04-09T08:28:24.439Z,6.5
2023-04-09T08:29:24.610Z,5.800
2023-04-09T08:30:24.746Z,7
2023-04-09T08:31:23.950Z,5.5
2023-04-09T08:32:24.221Z,4.900
2023-04-09T08:33:24.547Z,4.699
2023-04-09T08:34:24.428Z,5
2023-04-09T08:35:24.349Z,4.900
2023-04-09T08:36:24.241Z,5.199
2023-04-09T08:37:24.112Z,4.5
2023-04-09T08:38:24.129Z,4.599
2023-04-09T08:39:24.584Z,4.699
2023-04-09T08:40:24.546Z,4.900
2023-04-09T08:41:24.464Z,4.5
2023-04-09T08:42:24.009Z,4.400
2023-04-09T08:43:27.017Z,4.599
2023-04-09T08:44:25.173Z,4.699
2023-04-09T08:45:25.666Z,4.400
2023-04-09T08:46:24.323Z,4.900
2023-04-09T08:47:25.330Z,4.800
2023-04-09T08:48:24.790Z,4.900
2023-04-09T08:49:24.078Z,4.699
2023-04-09T08:50:24.101Z,4.5
2023-04-09T08:51:24.299Z,4.400
2023-04-09T08:52:24.331Z,4.800
2023-04-09T08:53:23.976Z,4.199
2023-04-09T08:54:24.533Z,4.300
2023-04-09T08:55:24.921Z,4.400
2023-04-09T08:56:24.475Z,4.199
2023-04-09T08:57:24.064Z,3.900
2023-04-09T08:58:24.401Z,4.199
2023-04-09T08:59:24.419Z,4.099
2023-04-09T09:01:24.041Z,3.900
2023-04-09T09:02:24.676Z,4.199
2023-04-09T09:03:23.914Z,3.900
2023-04-09T09:04:24.200Z,4.099
2023-04-09T09:05:24.360Z,4.300
2023-04-09T09:06:24.856Z,3.900
2023-04-09T09:07:25.243Z,4
2023-04-09T09:08:24.061Z,3.900
2023-04-09T09:09:24.447Z,3.799
2023-04-09T09:10:24.603Z,4.300
2023-04-09T09:11:24.366Z,4.099
2023-04-09T09:12:24.975Z,4.400
2023-04-09T09:13:24.720Z,4
2023-04-09T09:14:23.867Z,4.300
2023-04-09T09:15:23.983Z,4.400
2023-04-09T09:18:25.007Z,4.900
2023-04-09T09:19:25.084Z,5
2023-04-09T09:20:24.727Z,5.599
2023-04-09T09:21:24.844Z,5.400
2023-04-09T09:22:24.647Z,5.099
2023-04-09T09:23:24.496Z,5.300
2023-04-09T09:25:24.332Z,5.099
2023-04-09T09:26:24.615Z,5.300
2023-04-09T09:27:24.722Z,5
2023-04-09T09:28:24.626Z,4.400
2023-04-09T09:29:24.284Z,4.800
2023-04-09T09:30:24.878Z,4.199
2023-04-09T09:31:24.166Z,4.400
2023-04-09T09:32:24.458Z,4.199
2023-04-09T09:33:24.083Z,4.699
2023-04-09T09:34:24.460Z,4.300
2023-04-09T09:35:25.069Z,4.699
2023-04-09T09:36:24.459Z,4.900
2023-04-09T09:37:24.537Z,4.800
2023-04-09T09:38:25.089Z,5.5
2023-04-09T09:39:24.792Z,5.400
2023-04-09T09:40:25.497Z,5.800
2023-04-09T09:41:24.832Z,5.900
2023-04-09T09:42:24.624Z,5.699
2023-04-09T09:43:24.468Z,5.599
2023-04-09T09:44:23.994Z,6.400
2023-04-09T09:45:24.959Z,5.599
2023-04-09T09:46:24.596Z,5.300
2023-04-09T09:47:24.264Z,5.5
2023-04-09T09:48:27.098Z,5.699
2023-04-09T09:49:24.737Z,5.5
2023-04-09T09:50:24.234Z,6.099
2023-04-09T09:51:29.305Z,5.400
2023-04-09T09:52:23.804Z,5.800
2023-04-09T09:53:23.816Z,6.199
2023-04-09T09:54:24.987Z,6.300
2023-04-09T09:55:24.326Z,6.199
2023-04-09T09:56:24.671Z,6.099
2023-04-09T09:58:24.368Z,6.300
2023-04-09T10:01:32.904Z,6.599
2023-04-09T10:02:24.889Z,6.800
2023-04-09T10:03:25.598Z,6.5
2023-04-09T10:04:24.057Z,6.300
2023-04-09T10:05:38.287Z,6.599
2023-04-09T10:06:24.323Z,6.199
2023-04-09T10:07:24.542Z,6
2023-04-09T10:08:24.729Z,6.099
2023-04-09T10:09:24.344Z,5.900
2023-04-09T10:10:24.417Z,5.5
2023-04-09T10:11:24.241Z,6.099
2023-04-09T10:12:23.939Z,5.800
2023-04-09T10:13:23.833Z,6.5
2023-04-09T10:14:24.300Z,6.699
2023-04-09T10:16:24.239Z,6.800
2023-04-09T10:17:24.062Z,6.300
2023-04-09T10:18:24.298Z,6.400
2023-04-09T10:20:24.420Z,6.300
2023-04-09T10:21:24.289Z,6.5
2023-04-09T10:22:24.040Z,6.699
2023-04-09T10:23:23.764Z,7.5
2023-04-09T10:24:24.111Z,7
2023-04-09T10:25:24.674Z,7.400
2023-04-09T10:26:24.842Z,10.30
2023-04-09T10:27:25.072Z,10.5
2023-04-09T10:28:23.444Z,9.5
2023-04-09T10:29:24.547Z,7.5
2023-04-09T10:30:25.268Z,7
2023-04-09T10:31:24.298Z,6.599
2023-04-09T10:32:24.570Z,6.400
2023-04-09T10:33:24.384Z,6.599
2023-04-09T10:34:24.091Z,6.099
2023-04-09T10:35:23.788Z,6.5
2023-04-09T10:36:25.149Z,6.199
2023-04-09T10:38:24.445Z,6.800
2023-04-09T10:39:24.548Z,6.099
2023-04-09T10:40:25.116Z,6.199
2023-04-09T10:41:24.907Z,6.5
2023-04-09T10:42:25.154Z,6.900
2023-04-09T10:43:25.613Z,7
2023-04-09T10:44:24.530Z,6.400
2023-04-09T10:45:25.122Z,7.099
2023-04-09T10:46:24.861Z,7.199
2023-04-09T10:47:24.721Z,7
2023-04-09T10:48:24.709Z,7.099
2023-04-09T10:49:24.612Z,6.199
2023-04-09T10:50:25.734Z,6.300
2023-04-09T10:51:24.723Z,6.099
2023-04-09T10:52:25.314Z,5.699
2023-04-09T10:53:24.974Z,6.699
2023-04-09T10:54:25.122Z,6.300
2023-04-09T10:55:24.183Z,6.800
2023-04-09T10:56:24.640Z,7.199
2023-04-09T10:57:24.094Z,7
2023-04-09T11:02:24.783Z,6.300
2023-04-09T11:03:25.100Z,6.199
2023-04-09T11:04:24.937Z,6.099
2023-04-09T11:05:24.814Z,6.599
2023-04-09T11:07:25.281Z,6
2023-04-09T11:08:24.846Z,5.699
2023-04-09T11:09:23.998Z,5.400
2023-04-09T11:10:24.578Z,4.900
2023-04-09T11:12:24.230Z,4.800
2023-04-09T11:13:24.572Z,5.099
2023-04-09T11:14:24.610Z,5
2023-04-09T11:15:24.637Z,5.300
2023-04-09T11:16:27.900Z,5.099
2023-04-09T11:17:24.552Z,4.599
2023-04-09T11:18:24.872Z,3.900
2023-04-09T11:19:24.131Z,4.300
2023-04-09T11:20:24.792Z,4
2023-04-09T11:22:25.503Z,3.799
2023-04-09T11:23:24.907Z,4
2023-04-09T11:24:24.355Z,3.900
2023-04-09T11:25:24.605Z,3.599
2023-04-09T11:26:24.395Z,4.300
2023-04-09T11:27:24.559Z,4.599
2023-04-09T11:28:24.252Z,3.700
2023-04-09T11:29:24.359Z,3.599
2023-04-09T11:30:24.601Z,3.5
2023-04-09T11:31:24.174Z,3.599
2023-04-09T11:33:24.049Z,3.5
2023-04-09T11:34:23.883Z,3.299
2023-04-09T11:35:24.514Z,3.799
2023-04-09T11:36:25.266Z,3.400
2023-04-09T11:37:25.456Z,3.5
2023-04-09T11:38:24.702Z,3.700
2023-04-09T11:39:25.061Z,4.300
2023-04-09T11:40:24.413Z,4
2023-04-09T11:42:24.118Z,3.900
2023-04-09T11:43:24.539Z,3.599
2023-04-09T11:44:24.230Z,3.799
2023-04-09T11:45:24.577Z,3.900
2023-04-09T11:46:24.349Z,4.099
2023-04-09T11:47:24.641Z,3.700
2023-04-09T11:49:24.632Z,3.599
2023-04-09T11:51:24.368Z,3.799
2023-04-09T11:52:24.780Z,3.700
2023-04-09T11:53:24.089Z,3.900
2023-04-09T11:54:24.854Z,4.099
2023-04-09T11:56:24.360Z,3.900
2023-04-09T11:57:24.243Z,3.599
2023-04-09T11:58:24.072Z,3.700
2023-04-09T11:59:24.995Z,3.900
2023-04-09T12:00:25.391Z,3.299
2023-04-09T12:01:24.164Z,4
2023-04-09T12:03:25.169Z,4.599
2023-04-09T12:04:24.541Z,4.400
2023-04-09T12:05:24.910Z,4.300
2023-04-09T12:06:24.252Z,3.900
2023-04-09T12:07:25.152Z,4.099
2023-04-09T12:08:25.180Z,3.799
2023-04-09T12:09:25.011Z,3.900
2023-04-09T12:10:25.508Z,4
2023-04-09T12:11:24.613Z,3.799
2023-04-09T12:12:24.317Z,4
2023-04-09T12:13:24.470Z,3.700
2023-04-09T12:16:24.869Z,3.599
2023-04-09T12:17:24.902Z,4
2023-04-09T12:18:24.470Z,3.900
2023-04-09T12:19:24.732Z,4.400
2023-04-09T12:20:24.939Z,4.300
2023-04-09T12:21:24.018Z,4.099
2023-04-09T12:22:23.793Z,4.199
2023-04-09T12:23:24.765Z,3.700
2023-04-09T12:25:25.034Z,3.799
2023-04-09T12:26:24.823Z,3.400
2023-04-09T12:27:24.641Z,3.799
2023-04-09T12:29:24.533Z,3.5
2023-04-09T12:30:24.822Z,3.599
2023-04-09T12:31:23.286Z,3.799
2023-04-09T12:32:24.437Z,3.700
2023-04-09T12:33:24.400Z,4.099
2023-04-09T12:34:24.378Z,4
2023-04-09T12:35:24.163Z,3.900
2023-04-09T12:36:24.451Z,4
2023-04-09T12:37:24.077Z,3.599
2023-04-09T12:39:24.685Z,3.700
2023-04-09T12:40:24.786Z,3.900
2023-04-09T12:41:25.176Z,4.199
2023-04-09T12:44:24.484Z,4.400
2023-04-09T12:45:24.350Z,4.300
2023-04-09T12:46:24.543Z,4
2023-04-09T12:47:25.520Z,3.900
2023-04-09T12:48:24.742Z,4.300
2023-04-09T12:50:26.056Z,4.5
2023-04-09T12:51:26.014Z,3.700
2023-04-09T12:52:26.141Z,4
2023-04-09T12:53:25.855Z,3.599
2023-04-09T12:54:45.455Z,3.799
2023-04-09T12:56:24.554Z,4
2023-04-09T12:57:24.344Z,3.700
2023-04-09T12:58:25.231Z,3.5
2023-04-09T12:59:24.315Z,3.700
2023-04-09T13:00:25.340Z,3.799
2023-04-09T13:01:24.193Z,4
2023-04-09T13:02:24.837Z,3.599
2023-04-09T13:03:24.696Z,3.700
2023-04-09T13:05:29.349Z,3.900
2023-04-09T13:06:24.681Z,3.599
2023-04-09T13:07:24.465Z,4
2023-04-09T13:08:24.189Z,3.599
2023-04-09T13:09:24.528Z,3.5
2023-04-09T13:11:24.737Z,3.700
2023-04-09T13:12:24.993Z,3.799
2023-04-09T13:13:24.457Z,3.599
2023-04-09T13:14:24.297Z,4.199
2023-04-09T13:15:25.172Z,3.599
2023-04-09T13:16:24.207Z,4
2023-04-09T13:17:24.147Z,3.700
2023-04-09T13:20:24.270Z,3.5
2023-04-09T13:21:23.645Z,3.400
2023-04-09T13:22:24.011Z,3.599
2023-04-09T13:24:25.005Z,3.900
2023-04-09T13:26:24.069Z,4
2023-04-09T13:27:24.979Z,3.900
2023-04-09T13:28:23.982Z,4
2023-04-09T13:29:23.526Z,4.099
2023-04-09T13:30:24.443Z,3.799
2023-04-09T13:32:23.677Z,4.199
2023-04-09T13:33:24.226Z,3.900
2023-04-09T13:35:29.588Z,4.400
2023-04-09T13:36:24.783Z,4.099
2023-04-09T13:37:24.817Z,3.900
2023-04-09T13:38:24.410Z,4
2023-04-09T13:39:23.931Z,4.5
2023-04-09T13:40:24.459Z,4.099
2023-04-09T13:41:24.428Z,4
2023-04-09T13:42:24.836Z,4.199
2023-04-09T13:43:24.648Z,4.400
2023-04-09T13:44:24.276Z,4.099
2023-04-09T13:45:24.432Z,3.700
2023-04-09T13:46:24.066Z,3.799
2023-04-09T13:47:24.244Z,4
2023-04-09T13:48:24.327Z,3.900
2023-04-09T13:49:24.465Z,3.400
2023-04-09T13:51:23.832Z,3.200
2023-04-09T13:52:23.405Z,3.5
2023-04-09T13:53:24.744Z,3.200
2023-04-09T13:54:24.261Z,3.099
2023-04-09T13:55:24.270Z,3.400
2023-04-09T13:56:24.457Z,3.299
2023-04-09T13:57:24.513Z,3.5
2023-04-09T13:58:24.111Z,3.799
2023-04-09T14:00:25.311Z,3.200
2023-04-09T14:01:24.632Z,3.5
2023-04-09T14:03:24.940Z,3.400
2023-04-09T14:04:24.314Z,3.5
2023-04-09T14:05:24.352Z,3.599
2023-04-09T14:07:24.542Z,3.400
2023-04-09T14:08:24.592Z,3.700
2023-04-09T14:09:24.649Z,3.799
2023-04-09T14:10:24.522Z,3.599
2023-04-09T14:11:23.935Z,3.700
2023-04-09T14:12:24.059Z,3.5
2023-04-09T14:13:24.415Z,3.599
2023-04-09T14:14:24.266Z,3.5
2023-04-09T14:15:24.146Z,3.700
2023-04-09T14:16:24.076Z,3.299